sensor_id;sensor_type;location;lat;lon;timestamp;P1;durP1;ratioP1;P2;durP2;ratioP2
25191;SDS011;13143;50.924;5.320;2023-03-01T00:02:18;14.68;;;8.93;;
25191;SDS011;13143;50.924;5.320;2023-03-01T00:04:44;15.40;;;8.75;;
25191;SDS011;13143;50.924;5.320;2023-03-01T00:07:10;17.90;;;9.25;;
25191;SDS011;13143;50.924;5.320;2023-03-01T00:09:36;17.73;;;9.55;;
25191;SDS011;13143;50.924;5.320;2023-03-01T00:12:02;15.00;;;8.88;;
25191;SDS011;13143;50.924;5.320;2023-03-01T00:14:29;17.98;;;9.80;;
25191;SDS011;13143;50.924;5.320;2023-03-01T00:16:55;17.27;;;9.05;;
25191;SDS011;13143;50.924;5.320;2023-03-01T00:19:20;14.45;;;9.23;;
25191;SDS011;13143;50.924;5.320;2023-03-01T00:21:47;14.07;;;9.73;;
25191;SDS011;13143;50.924;5.320;2023-03-01T00:24:12;14.88;;;8.40;;
25191;SDS011;13143;50.924;5.320;2023-03-01T00:26:39;14.70;;;8.77;;
25191;SDS011;13143;50.924;5.320;2023-03-01T00:29:05;13.35;;;8.85;;
25191;SDS011;13143;50.924;5.320;2023-03-01T00:31:31;17.35;;;8.85;;
25191;SDS011;13143;50.924;5.320;2023-03-01T00:33:58;14.48;;;9.25;;
25191;SDS011;13143;50.924;5.320;2023-03-01T00:36:27;18.75;;;9.30;;
25191;SDS011;13143;50.924;5.320;2023-03-01T00:38:54;13.80;;;9.27;;
25191;SDS011;13143;50.924;5.320;2023-03-01T00:41:20;14.90;;;9.10;;
25191;SDS011;13143;50.924;5.320;2023-03-01T00:43:51;16.33;;;9.10;;
25191;SDS011;13143;50.924;5.320;2023-03-01T00:46:19;13.98;;;9.45;;
25191;SDS011;13143;50.924;5.320;2023-03-01T00:48:46;15.15;;;8.85;;
25191;SDS011;13143;50.924;5.320;2023-03-01T00:51:13;16.15;;;8.80;;
25191;SDS011;13143;50.924;5.320;2023-03-01T00:53:50;16.55;;;8.52;;
25191;SDS011;13143;50.924;5.320;2023-03-01T00:56:17;16.55;;;9.63;;
25191;SDS011;13143;50.924;5.320;2023-03-01T00:58:43;14.35;;;8.70;;
25191;SDS011;13143;50.924;5.320;2023-03-01T01:01:13;15.63;;;8.82;;
25191;SDS011;13143;50.924;5.320;2023-03-01T01:03:45;17.02;;;9.18;;
25191;SDS011;13143;50.924;5.320;2023-03-01T01:06:26;15.40;;;9.05;;
25191;SDS011;13143;50.924;5.320;2023-03-01T01:08:54;15.35;;;8.80;;
25191;SDS011;13143;50.924;5.320;2023-03-01T01:11:20;16.00;;;8.57;;
25191;SDS011;13143;50.924;5.320;2023-03-01T01:13:48;12.73;;;8.48;;
25191;SDS011;13143;50.924;5.320;2023-03-01T01:16:14;15.77;;;9.43;;
25191;SDS011;13143;50.924;5.320;2023-03-01T01:18:41;16.58;;;8.60;;
25191;SDS011;13143;50.924;5.320;2023-03-01T01:21:07;14.93;;;9.32;;
25191;SDS011;13143;50.924;5.320;2023-03-01T01:23:36;16.02;;;8.68;;
25191;SDS011;13143;50.924;5.320;2023-03-01T01:26:06;17.95;;;9.43;;
25191;SDS011;13143;50.924;5.320;2023-03-01T01:28:37;14.38;;;8.90;;
25191;SDS011;13143;50.924;5.320;2023-03-01T01:31:03;20.38;;;9.27;;
25191;SDS011;13143;50.924;5.320;2023-03-01T01:33:29;12.48;;;8.25;;
25191;SDS011;13143;50.924;5.320;2023-03-01T01:35:55;13.85;;;8.90;;
25191;SDS011;13143;50.924;5.320;2023-03-01T01:38:21;16.40;;;8.60;;
25191;SDS011;13143;50.924;5.320;2023-03-01T01:40:47;12.88;;;9.20;;
25191;SDS011;13143;50.924;5.320;2023-03-01T01:43:18;21.45;;;10.00;;
25191;SDS011;13143;50.924;5.320;2023-03-01T01:45:54;16.25;;;9.30;;
25191;SDS011;13143;50.924;5.320;2023-03-01T01:48:25;14.70;;;8.90;;
25191;SDS011;13143;50.924;5.320;2023-03-01T01:51:05;16.63;;;8.98;;
25191;SDS011;13143;50.924;5.320;2023-03-01T01:53:33;18.20;;;9.20;;
25191;SDS011;13143;50.924;5.320;2023-03-01T01:56:00;15.20;;;9.38;;
25191;SDS011;13143;50.924;5.320;2023-03-01T01:58:27;17.05;;;8.88;;
25191;SDS011;13143;50.924;5.320;2023-03-01T02:00:54;17.17;;;9.30;;
25191;SDS011;13143;50.924;5.320;2023-03-01T02:03:25;19.75;;;10.15;;
25191;SDS011;13143;50.924;5.320;2023-03-01T02:11:33;14.52;;;9.68;;
25191;SDS011;13143;50.924;5.320;2023-03-01T02:13:59;14.05;;;9.40;;
25191;SDS011;13143;50.924;5.320;2023-03-01T02:16:25;15.60;;;9.23;;
25191;SDS011;13143;50.924;5.320;2023-03-01T02:18:51;15.27;;;9.68;;
25191;SDS011;13143;50.924;5.320;2023-03-01T02:21:25;13.50;;;8.70;;
25191;SDS011;13143;50.924;5.320;2023-03-01T02:24:53;14.85;;;9.82;;
25191;SDS011;13143;50.924;5.320;2023-03-01T02:27:07;14.52;;;9.57;;
25191;SDS011;13143;50.924;5.320;2023-03-01T02:29:34;16.52;;;9.43;;
25191;SDS011;13143;50.924;5.320;2023-03-01T02:32:00;13.60;;;9.50;;
25191;SDS011;13143;50.924;5.320;2023-03-01T02:34:28;15.85;;;9.20;;
25191;SDS011;13143;50.924;5.320;2023-03-01T02:36:58;16.98;;;9.55;;
25191;SDS011;13143;50.924;5.320;2023-03-01T02:42:31;15.35;;;9.80;;
25191;SDS011;13143;50.924;5.320;2023-03-01T02:45:01;16.35;;;9.57;;
25191;SDS011;13143;50.924;5.320;2023-03-01T02:47:28;16.08;;;9.63;;
25191;SDS011;13143;50.924;5.320;2023-03-01T02:49:54;14.35;;;9.68;;
25191;SDS011;13143;50.924;5.320;2023-03-01T02:55:19;15.27;;;9.68;;
25191;SDS011;13143;50.924;5.320;2023-03-01T02:57:45;16.73;;;10.23;;
25191;SDS011;13143;50.924;5.320;2023-03-01T03:00:17;17.67;;;11.15;;
25191;SDS011;13143;50.924;5.320;2023-03-01T03:02:49;15.27;;;10.23;;
25191;SDS011;13143;50.924;5.320;2023-03-01T03:05:17;16.13;;;9.38;;
25191;SDS011;13143;50.924;5.320;2023-03-01T03:07:46;15.48;;;10.18;;
25191;SDS011;13143;50.924;5.320;2023-03-01T03:10:15;19.33;;;9.98;;
25191;SDS011;13143;50.924;5.320;2023-03-01T03:12:44;17.00;;;10.88;;
25191;SDS011;13143;50.924;5.320;2023-03-01T03:15:24;20.48;;;11.55;;
25191;SDS011;13143;50.924;5.320;2023-03-01T03:17:51;16.95;;;10.55;;
25191;SDS011;13143;50.924;5.320;2023-03-01T03:20:18;17.30;;;10.38;;
25191;SDS011;13143;50.924;5.320;2023-03-01T03:22:46;25.17;;;10.40;;
25191;SDS011;13143;50.924;5.320;2023-03-01T03:25:13;15.13;;;10.80;;
25191;SDS011;13143;50.924;5.320;2023-03-01T03:27:39;17.85;;;10.52;;
25191;SDS011;13143;50.924;5.320;2023-03-01T03:30:07;16.80;;;10.15;;
25191;SDS011;13143;50.924;5.320;2023-03-01T03:32:37;21.02;;;10.77;;
25191;SDS011;13143;50.924;5.320;2023-03-01T03:35:04;16.15;;;10.30;;
25191;SDS011;13143;50.924;5.320;2023-03-01T03:37:36;18.05;;;10.27;;
25191;SDS011;13143;50.924;5.320;2023-03-01T03:40:23;16.52;;;10.27;;
25191;SDS011;13143;50.924;5.320;2023-03-01T03:42:49;21.58;;;11.02;;
25191;SDS011;13143;50.924;5.320;2023-03-01T03:45:16;21.23;;;11.35;;
25191;SDS011;13143;50.924;5.320;2023-03-01T03:47:42;15.95;;;11.00;;
25191;SDS011;13143;50.924;5.320;2023-03-01T03:50:09;17.30;;;11.00;;
25191;SDS011;13143;50.924;5.320;2023-03-01T03:52:36;18.90;;;12.32;;
25191;SDS011;13143;50.924;5.320;2023-03-01T03:55:01;17.20;;;11.48;;
25191;SDS011;13143;50.924;5.320;2023-03-01T03:57:27;21.05;;;11.63;;
25191;SDS011;13143;50.924;5.320;2023-03-01T03:59:53;17.10;;;10.98;;
25191;SDS011;13143;50.924;5.320;2023-03-01T04:02:18;18.30;;;12.20;;
25191;SDS011;13143;50.924;5.320;2023-03-01T04:04:47;18.73;;;11.93;;
25191;SDS011;13143;50.924;5.320;2023-03-01T04:07:15;17.20;;;11.68;;
25191;SDS011;13143;50.924;5.320;2023-03-01T04:09:43;21.92;;;12.07;;
25191;SDS011;13143;50.924;5.320;2023-03-01T04:12:09;16.40;;;12.02;;
25191;SDS011;13143;50.924;5.320;2023-03-01T04:14:35;18.17;;;11.57;;
25191;SDS011;13143;50.924;5.320;2023-03-01T04:17:01;18.30;;;11.35;;
25191;SDS011;13143;50.924;5.320;2023-03-01T04:19:30;18.42;;;11.80;;
25191;SDS011;13143;50.924;5.320;2023-03-01T04:22:03;20.60;;;12.73;;
25191;SDS011;13143;50.924;5.320;2023-03-01T04:24:34;16.50;;;12.32;;
25191;SDS011;13143;50.924;5.320;2023-03-01T04:27:01;16.25;;;11.70;;
25191;SDS011;13143;50.924;5.320;2023-03-01T04:29:26;23.05;;;11.98;;
25191;SDS011;13143;50.924;5.320;2023-03-01T04:31:52;19.17;;;12.15;;
25191;SDS011;13143;50.924;5.320;2023-03-01T04:34:18;20.17;;;12.52;;
25191;SDS011;13143;50.924;5.320;2023-03-01T04:36:44;20.73;;;12.20;;
25191;SDS011;13143;50.924;5.320;2023-03-01T04:39:10;22.75;;;12.20;;
25191;SDS011;13143;50.924;5.320;2023-03-01T04:41:38;20.67;;;12.07;;
25191;SDS011;13143;50.924;5.320;2023-03-01T04:44:06;19.63;;;11.85;;
25191;SDS011;13143;50.924;5.320;2023-03-01T04:46:34;17.95;;;12.13;;
25191;SDS011;13143;50.924;5.320;2023-03-01T04:49:01;23.27;;;13.32;;
25191;SDS011;13143;50.924;5.320;2023-03-01T04:51:27;19.42;;;12.20;;
25191;SDS011;13143;50.924;5.320;2023-03-01T04:53:53;21.73;;;12.48;;
25191;SDS011;13143;50.924;5.320;2023-03-01T04:56:19;23.77;;;12.43;;
25191;SDS011;13143;50.924;5.320;2023-03-01T04:58:44;22.63;;;12.15;;
25191;SDS011;13143;50.924;5.320;2023-03-01T05:01:11;24.83;;;12.75;;
25191;SDS011;13143;50.924;5.320;2023-03-01T05:03:42;22.17;;;12.43;;
25191;SDS011;13143;50.924;5.320;2023-03-01T05:06:09;22.35;;;12.75;;
25191;SDS011;13143;50.924;5.320;2023-03-01T05:08:36;23.27;;;13.45;;
25191;SDS011;13143;50.924;5.320;2023-03-01T05:11:05;19.08;;;12.85;;
25191;SDS011;13143;50.924;5.320;2023-03-01T05:13:34;23.40;;;12.65;;
25191;SDS011;13143;50.924;5.320;2023-03-01T05:16:00;25.10;;;12.82;;
25191;SDS011;13143;50.924;5.320;2023-03-01T05:18:28;18.73;;;12.60;;
25191;SDS011;13143;50.924;5.320;2023-03-01T05:20:55;18.52;;;12.43;;
25191;SDS011;13143;50.924;5.320;2023-03-01T05:23:26;20.08;;;11.80;;
25191;SDS011;13143;50.924;5.320;2023-03-01T05:25:52;21.75;;;13.07;;
25191;SDS011;13143;50.924;5.320;2023-03-01T05:28:18;18.88;;;13.00;;
25191;SDS011;13143;50.924;5.320;2023-03-01T05:30:44;22.80;;;12.90;;
25191;SDS011;13143;50.924;5.320;2023-03-01T05:33:11;19.98;;;11.98;;
25191;SDS011;13143;50.924;5.320;2023-03-01T05:35:40;21.38;;;12.80;;
25191;SDS011;13143;50.924;5.320;2023-03-01T05:38:07;21.52;;;12.90;;
25191;SDS011;13143;50.924;5.320;2023-03-01T05:40:34;20.50;;;12.40;;
25191;SDS011;13143;50.924;5.320;2023-03-01T05:43:00;19.23;;;12.38;;
25191;SDS011;13143;50.924;5.320;2023-03-01T05:45:26;23.08;;;12.85;;
25191;SDS011;13143;50.924;5.320;2023-03-01T05:47:53;18.55;;;13.13;;
25191;SDS011;13143;50.924;5.320;2023-03-01T05:50:20;18.48;;;12.32;;
25191;SDS011;13143;50.924;5.320;2023-03-01T05:52:52;20.05;;;12.85;;
25191;SDS011;13143;50.924;5.320;2023-03-01T05:55:33;20.83;;;12.75;;
25191;SDS011;13143;50.924;5.320;2023-03-01T05:58:03;23.92;;;15.55;;
25191;SDS011;13143;50.924;5.320;2023-03-01T06:00:32;21.85;;;13.80;;
25191;SDS011;13143;50.924;5.320;2023-03-01T06:02:58;19.33;;;12.18;;
25191;SDS011;13143;50.924;5.320;2023-03-01T06:05:24;20.33;;;12.07;;
25191;SDS011;13143;50.924;5.320;2023-03-01T06:07:50;21.30;;;13.60;;
25191;SDS011;13143;50.924;5.320;2023-03-01T06:10:17;21.83;;;15.27;;
25191;SDS011;13143;50.924;5.320;2023-03-01T06:12:44;22.85;;;13.75;;
25191;SDS011;13143;50.924;5.320;2023-03-01T06:15:11;21.15;;;13.38;;
25191;SDS011;13143;50.924;5.320;2023-03-01T06:17:38;23.02;;;13.77;;
25191;SDS011;13143;50.924;5.320;2023-03-01T06:20:06;21.13;;;13.90;;
25191;SDS011;13143;50.924;5.320;2023-03-01T06:22:37;21.92;;;12.75;;
25191;SDS011;13143;50.924;5.320;2023-03-01T06:25:04;22.80;;;13.63;;
25191;SDS011;13143;50.924;5.320;2023-03-01T06:27:30;22.05;;;12.82;;
25191;SDS011;13143;50.924;5.320;2023-03-01T06:29:56;25.10;;;13.20;;
25191;SDS011;13143;50.924;5.320;2023-03-01T06:32:21;25.90;;;14.30;;
25191;SDS011;13143;50.924;5.320;2023-03-01T06:34:47;24.15;;;13.27;;
25191;SDS011;13143;50.924;5.320;2023-03-01T06:37:13;23.75;;;13.73;;
25191;SDS011;13143;50.924;5.320;2023-03-01T06:39:38;27.63;;;14.25;;
25191;SDS011;13143;50.924;5.320;2023-03-01T06:42:04;26.77;;;14.90;;
25191;SDS011;13143;50.924;5.320;2023-03-01T06:44:29;24.00;;;14.23;;
25191;SDS011;13143;50.924;5.320;2023-03-01T06:46:55;23.02;;;14.07;;
25191;SDS011;13143;50.924;5.320;2023-03-01T06:49:21;25.73;;;14.30;;
25191;SDS011;13143;50.924;5.320;2023-03-01T06:51:47;22.33;;;13.80;;
25191;SDS011;13143;50.924;5.320;2023-03-01T06:54:13;22.17;;;14.52;;
25191;SDS011;13143;50.924;5.320;2023-03-01T06:56:38;21.90;;;14.02;;
25191;SDS011;13143;50.924;5.320;2023-03-01T06:59:04;23.52;;;14.73;;
25191;SDS011;13143;50.924;5.320;2023-03-01T07:01:30;28.13;;;14.68;;
25191;SDS011;13143;50.924;5.320;2023-03-01T07:03:56;23.55;;;13.65;;
25191;SDS011;13143;50.924;5.320;2023-03-01T07:06:22;21.85;;;14.07;;
25191;SDS011;13143;50.924;5.320;2023-03-01T07:08:48;27.27;;;14.75;;
25191;SDS011;13143;50.924;5.320;2023-03-01T07:11:14;28.33;;;14.02;;
25191;SDS011;13143;50.924;5.320;2023-03-01T07:13:40;25.15;;;13.88;;
25191;SDS011;13143;50.924;5.320;2023-03-01T07:16:05;30.45;;;14.93;;
25191;SDS011;13143;50.924;5.320;2023-03-01T07:18:32;25.90;;;14.40;;
25191;SDS011;13143;50.924;5.320;2023-03-01T07:20:58;23.75;;;14.10;;
25191;SDS011;13143;50.924;5.320;2023-03-01T07:23:28;25.48;;;14.27;;
25191;SDS011;13143;50.924;5.320;2023-03-01T07:25:54;29.98;;;14.05;;
25191;SDS011;13143;50.924;5.320;2023-03-01T07:28:20;28.05;;;14.32;;
25191;SDS011;13143;50.924;5.320;2023-03-01T07:30:47;29.40;;;14.52;;
25191;SDS011;13143;50.924;5.320;2023-03-01T07:33:13;26.67;;;15.93;;
25191;SDS011;13143;50.924;5.320;2023-03-01T07:35:38;28.20;;;16.67;;
25191;SDS011;13143;50.924;5.320;2023-03-01T07:38:04;33.08;;;15.52;;
25191;SDS011;13143;50.924;5.320;2023-03-01T07:40:30;27.10;;;16.13;;
25191;SDS011;13143;50.924;5.320;2023-03-01T07:42:56;25.45;;;14.73;;
25191;SDS011;13143;50.924;5.320;2023-03-01T07:45:22;26.65;;;15.65;;
25191;SDS011;13143;50.924;5.320;2023-03-01T07:47:50;28.00;;;15.20;;
25191;SDS011;13143;50.924;5.320;2023-03-01T07:50:16;35.22;;;16.52;;
25191;SDS011;13143;50.924;5.320;2023-03-01T07:52:44;24.00;;;14.95;;
25191;SDS011;13143;50.924;5.320;2023-03-01T07:55:10;31.63;;;14.60;;
25191;SDS011;13143;50.924;5.320;2023-03-01T07:57:36;31.60;;;15.25;;
25191;SDS011;13143;50.924;5.320;2023-03-01T08:00:02;29.10;;;16.63;;
25191;SDS011;13143;50.924;5.320;2023-03-01T08:02:28;28.10;;;16.40;;
25191;SDS011;13143;50.924;5.320;2023-03-01T08:04:54;26.02;;;15.65;;
25191;SDS011;13143;50.924;5.320;2023-03-01T08:07:19;26.38;;;14.68;;
25191;SDS011;13143;50.924;5.320;2023-03-01T08:09:45;29.77;;;15.40;;
25191;SDS011;13143;50.924;5.320;2023-03-01T08:12:11;28.00;;;15.32;;
25191;SDS011;13143;50.924;5.320;2023-03-01T08:14:36;27.77;;;16.33;;
25191;SDS011;13143;50.924;5.320;2023-03-01T08:17:02;28.50;;;14.93;;
25191;SDS011;13143;50.924;5.320;2023-03-01T08:19:28;28.50;;;15.70;;
25191;SDS011;13143;50.924;5.320;2023-03-01T08:21:54;30.25;;;15.40;;
25191;SDS011;13143;50.924;5.320;2023-03-01T08:24:23;30.73;;;15.77;;
25191;SDS011;13143;50.924;5.320;2023-03-01T08:26:48;26.58;;;14.57;;
25191;SDS011;13143;50.924;5.320;2023-03-01T08:29:14;30.00;;;16.00;;
25191;SDS011;13143;50.924;5.320;2023-03-01T08:31:40;26.10;;;15.75;;
25191;SDS011;13143;50.924;5.320;2023-03-01T08:34:07;28.00;;;16.17;;
25191;SDS011;13143;50.924;5.320;2023-03-01T08:36:38;28.77;;;15.55;;
25191;SDS011;13143;50.924;5.320;2023-03-01T08:39:06;29.00;;;15.95;;
25191;SDS011;13143;50.924;5.320;2023-03-01T08:41:33;28.60;;;15.70;;
25191;SDS011;13143;50.924;5.320;2023-03-01T08:43:59;26.63;;;16.50;;
25191;SDS011;13143;50.924;5.320;2023-03-01T08:46:34;38.47;;;18.48;;
25191;SDS011;13143;50.924;5.320;2023-03-01T08:49:05;27.70;;;15.90;;
25191;SDS011;13143;50.924;5.320;2023-03-01T08:51:32;28.25;;;15.88;;
25191;SDS011;13143;50.924;5.320;2023-03-01T08:54:02;26.52;;;15.95;;
25191;SDS011;13143;50.924;5.320;2023-03-01T08:56:29;26.65;;;15.75;;
25191;SDS011;13143;50.924;5.320;2023-03-01T08:58:54;25.08;;;14.77;;
25191;SDS011;13143;50.924;5.320;2023-03-01T09:01:20;28.30;;;15.25;;
25191;SDS011;13143;50.924;5.320;2023-03-01T09:03:46;28.35;;;15.35;;
25191;SDS011;13143;50.924;5.320;2023-03-01T09:06:12;31.30;;;15.57;;
25191;SDS011;13143;50.924;5.320;2023-03-01T09:08:40;28.25;;;16.10;;
25191;SDS011;13143;50.924;5.320;2023-03-01T09:11:08;26.73;;;15.13;;
25191;SDS011;13143;50.924;5.320;2023-03-01T09:13:34;24.23;;;14.63;;
25191;SDS011;13143;50.924;5.320;2023-03-01T09:16:01;26.55;;;15.20;;
25191;SDS011;13143;50.924;5.320;2023-03-01T09:18:29;30.63;;;15.88;;
25191;SDS011;13143;50.924;5.320;2023-03-01T09:21:06;28.55;;;15.82;;
25191;SDS011;13143;50.924;5.320;2023-03-01T09:23:37;29.08;;;16.42;;
25191;SDS011;13143;50.924;5.320;2023-03-01T09:26:05;25.77;;;15.73;;
25191;SDS011;13143;50.924;5.320;2023-03-01T09:28:34;26.98;;;15.98;;
25191;SDS011;13143;50.924;5.320;2023-03-01T09:31:00;31.15;;;15.38;;
25191;SDS011;13143;50.924;5.320;2023-03-01T09:33:27;27.98;;;16.13;;
25191;SDS011;13143;50.924;5.320;2023-03-01T09:35:58;26.48;;;15.55;;
25191;SDS011;13143;50.924;5.320;2023-03-01T09:38:24;28.30;;;15.55;;
25191;SDS011;13143;50.924;5.320;2023-03-01T09:40:50;23.45;;;14.88;;
25191;SDS011;13143;50.924;5.320;2023-03-01T09:46:04;29.10;;;17.23;;
25191;SDS011;13143;50.924;5.320;2023-03-01T09:48:37;36.58;;;15.45;;
25191;SDS011;13143;50.924;5.320;2023-03-01T09:51:12;28.52;;;16.10;;
25191;SDS011;13143;50.924;5.320;2023-03-01T09:53:46;27.17;;;16.50;;
25191;SDS011;13143;50.924;5.320;2023-03-01T09:58:59;27.83;;;16.27;;
25191;SDS011;13143;50.924;5.320;2023-03-01T10:07:21;29.00;;;15.25;;
25191;SDS011;13143;50.924;5.320;2023-03-01T10:09:52;31.15;;;17.13;;
25191;SDS011;13143;50.924;5.320;2023-03-01T10:12:19;26.75;;;17.48;;
25191;SDS011;13143;50.924;5.320;2023-03-01T10:17:48;30.85;;;16.50;;
25191;SDS011;13143;50.924;5.320;2023-03-01T10:20:22;24.92;;;16.08;;
25191;SDS011;13143;50.924;5.320;2023-03-01T10:22:56;29.50;;;16.33;;
25191;SDS011;13143;50.924;5.320;2023-03-01T10:28:20;29.13;;;16.67;;
25191;SDS011;13143;50.924;5.320;2023-03-01T10:31:11;27.77;;;16.27;;
25191;SDS011;13143;50.924;5.320;2023-03-01T10:33:39;29.45;;;16.70;;
25191;SDS011;13143;50.924;5.320;2023-03-01T10:36:07;30.38;;;17.38;;
25191;SDS011;13143;50.924;5.320;2023-03-01T10:38:46;32.28;;;16.83;;
25191;SDS011;13143;50.924;5.320;2023-03-01T10:41:14;28.55;;;16.13;;
25191;SDS011;13143;50.924;5.320;2023-03-01T10:43:47;29.83;;;17.08;;
25191;SDS011;13143;50.924;5.320;2023-03-01T10:46:28;25.13;;;16.75;;
25191;SDS011;13143;50.924;5.320;2023-03-01T10:49:05;28.33;;;17.23;;
25191;SDS011;13143;50.924;5.320;2023-03-01T10:51:33;29.05;;;17.88;;
25191;SDS011;13143;50.924;5.320;2023-03-01T10:53:58;25.95;;;15.23;;
25191;SDS011;13143;50.924;5.320;2023-03-01T10:56:24;29.90;;;17.17;;
25191;SDS011;13143;50.924;5.320;2023-03-01T10:59:00;32.45;;;17.42;;
25191;SDS011;13143;50.924;5.320;2023-03-01T11:01:32;28.63;;;16.45;;
25191;SDS011;13143;50.924;5.320;2023-03-01T11:04:18;29.38;;;18.25;;
25191;SDS011;13143;50.924;5.320;2023-03-01T11:06:43;31.08;;;17.70;;
25191;SDS011;13143;50.924;5.320;2023-03-01T11:09:24;31.42;;;16.92;;
25191;SDS011;13143;50.924;5.320;2023-03-01T11:11:56;27.88;;;16.67;;
25191;SDS011;13143;50.924;5.320;2023-03-01T11:14:24;28.23;;;16.55;;
25191;SDS011;13143;50.924;5.320;2023-03-01T11:17:01;25.38;;;16.35;;
25191;SDS011;13143;50.924;5.320;2023-03-01T11:20:33;27.42;;;16.80;;
25191;SDS011;13143;50.924;5.320;2023-03-01T11:22:53;32.03;;;15.65;;
25191;SDS011;13143;50.924;5.320;2023-03-01T11:25:21;29.55;;;16.88;;
25191;SDS011;13143;50.924;5.320;2023-03-01T11:27:51;28.73;;;16.83;;
25191;SDS011;13143;50.924;5.320;2023-03-01T11:30:20;31.80;;;17.77;;
25191;SDS011;13143;50.924;5.320;2023-03-01T11:33:11;31.52;;;17.13;;
25191;SDS011;13143;50.924;5.320;2023-03-01T11:35:53;30.30;;;15.48;;
25191;SDS011;13143;50.924;5.320;2023-03-01T11:38:25;29.17;;;16.52;;
25191;SDS011;13143;50.924;5.320;2023-03-01T11:40:58;33.00;;;16.35;;
25191;SDS011;13143;50.924;5.320;2023-03-01T11:46:11;25.52;;;15.68;;
25191;SDS011;13143;50.924;5.320;2023-03-01T11:56:34;30.08;;;15.02;;
25191;SDS011;13143;50.924;5.320;2023-03-01T12:09:22;23.83;;;14.88;;
25191;SDS011;13143;50.924;5.320;2023-03-01T12:12:05;23.27;;;14.77;;
25191;SDS011;13143;50.924;5.320;2023-03-01T12:21:03;24.30;;;14.57;;
25191;SDS011;13143;50.924;5.320;2023-03-01T12:24:32;23.13;;;13.35;;
25191;SDS011;13143;50.924;5.320;2023-03-01T12:27:12;26.77;;;14.40;;
25191;SDS011;13143;50.924;5.320;2023-03-01T12:32:43;24.48;;;14.07;;
25191;SDS011;13143;50.924;5.320;2023-03-01T12:45:56;26.85;;;15.13;;
25191;SDS011;13143;50.924;5.320;2023-03-01T12:48:46;22.77;;;13.63;;
25191;SDS011;13143;50.924;5.320;2023-03-01T12:51:37;29.10;;;14.05;;
25191;SDS011;13143;50.924;5.320;2023-03-01T12:54:15;27.33;;;15.43;;
25191;SDS011;13143;50.924;5.320;2023-03-01T12:56:45;25.33;;;14.60;;
25191;SDS011;13143;50.924;5.320;2023-03-01T12:59:38;26.77;;;14.70;;
25191;SDS011;13143;50.924;5.320;2023-03-01T13:13:12;23.95;;;14.32;;
25191;SDS011;13143;50.924;5.320;2023-03-01T13:15:43;24.75;;;15.18;;
25191;SDS011;13143;50.924;5.320;2023-03-01T13:23:11;22.23;;;13.45;;
25191;SDS011;13143;50.924;5.320;2023-03-01T13:28:40;21.85;;;14.38;;
25191;SDS011;13143;50.924;5.320;2023-03-01T13:33:48;26.92;;;14.15;;
25191;SDS011;13143;50.924;5.320;2023-03-01T13:46:56;23.10;;;13.60;;
25191;SDS011;13143;50.924;5.320;2023-03-01T13:52:24;22.47;;;13.40;;
25191;SDS011;13143;50.924;5.320;2023-03-01T13:55:32;22.20;;;12.93;;
25191;SDS011;13143;50.924;5.320;2023-03-01T13:57:58;24.75;;;13.98;;
25191;SDS011;13143;50.924;5.320;2023-03-01T14:03:03;24.13;;;14.00;;
25191;SDS011;13143;50.924;5.320;2023-03-01T14:05:34;22.17;;;15.00;;
25191;SDS011;13143;50.924;5.320;2023-03-01T14:08:01;23.05;;;14.40;;
25191;SDS011;13143;50.924;5.320;2023-03-01T14:17:04;22.58;;;13.93;;
25191;SDS011;13143;50.924;5.320;2023-03-01T14:19:47;22.15;;;12.45;;
25191;SDS011;13143;50.924;5.320;2023-03-01T14:22:36;23.67;;;12.80;;
25191;SDS011;13143;50.924;5.320;2023-03-01T14:25:06;19.15;;;12.32;;
25191;SDS011;13143;50.924;5.320;2023-03-01T14:27:50;22.05;;;12.27;;
25191;SDS011;13143;50.924;5.320;2023-03-01T14:30:22;22.73;;;13.10;;
25191;SDS011;13143;50.924;5.320;2023-03-01T14:32:54;20.10;;;12.27;;
25191;SDS011;13143;50.924;5.320;2023-03-01T14:35:23;23.45;;;12.63;;
25191;SDS011;13143;50.924;5.320;2023-03-01T14:37:50;21.10;;;12.50;;
25191;SDS011;13143;50.924;5.320;2023-03-01T14:40:21;23.20;;;12.63;;
25191;SDS011;13143;50.924;5.320;2023-03-01T14:42:52;22.80;;;13.07;;
25191;SDS011;13143;50.924;5.320;2023-03-01T14:45:19;22.17;;;13.02;;
25191;SDS011;13143;50.924;5.320;2023-03-01T14:47:45;22.10;;;13.18;;
25191;SDS011;13143;50.924;5.320;2023-03-01T14:52:52;21.50;;;11.90;;
25191;SDS011;13143;50.924;5.320;2023-03-01T14:55:31;25.25;;;12.55;;
25191;SDS011;13143;50.924;5.320;2023-03-01T14:58:03;21.73;;;12.23;;
25191;SDS011;13143;50.924;5.320;2023-03-01T15:00:30;22.33;;;12.00;;
25191;SDS011;13143;50.924;5.320;2023-03-01T15:03:00;19.15;;;11.52;;
25191;SDS011;13143;50.924;5.320;2023-03-01T15:05:46;19.90;;;11.85;;
25191;SDS011;13143;50.924;5.320;2023-03-01T15:08:23;18.85;;;12.40;;
25191;SDS011;13143;50.924;5.320;2023-03-01T15:10:57;18.95;;;11.88;;
25191;SDS011;13143;50.924;5.320;2023-03-01T15:13:28;18.35;;;11.23;;
25191;SDS011;13143;50.924;5.320;2023-03-01T15:16:02;23.67;;;12.77;;
25191;SDS011;13143;50.924;5.320;2023-03-01T15:18:45;20.33;;;11.55;;
25191;SDS011;13143;50.924;5.320;2023-03-01T15:21:15;24.13;;;12.07;;
25191;SDS011;13143;50.924;5.320;2023-03-01T15:23:47;21.15;;;12.13;;
25191;SDS011;13143;50.924;5.320;2023-03-01T15:26:35;23.30;;;12.98;;
25191;SDS011;13143;50.924;5.320;2023-03-01T15:29:05;19.00;;;11.20;;
25191;SDS011;13143;50.924;5.320;2023-03-01T15:31:47;19.77;;;11.95;;
25191;SDS011;13143;50.924;5.320;2023-03-01T15:34:29;23.92;;;11.77;;
25191;SDS011;13143;50.924;5.320;2023-03-01T15:36:57;21.80;;;10.90;;
25191;SDS011;13143;50.924;5.320;2023-03-01T15:39:35;19.83;;;11.00;;
25191;SDS011;13143;50.924;5.320;2023-03-01T15:42:12;16.67;;;10.30;;
25191;SDS011;13143;50.924;5.320;2023-03-01T15:45:10;19.25;;;10.25;;
25191;SDS011;13143;50.924;5.320;2023-03-01T15:48:03;19.23;;;9.80;;
25191;SDS011;13143;50.924;5.320;2023-03-01T15:50:33;23.08;;;10.10;;
25191;SDS011;13143;50.924;5.320;2023-03-01T15:53:01;24.60;;;10.27;;
25191;SDS011;13143;50.924;5.320;2023-03-01T15:55:32;16.88;;;9.70;;
25191;SDS011;13143;50.924;5.320;2023-03-01T16:00:25;23.88;;;9.27;;
25191;SDS011;13143;50.924;5.320;2023-03-01T16:02:51;13.70;;;8.63;;
25191;SDS011;13143;50.924;5.320;2023-03-01T16:05:27;13.77;;;8.88;;
25191;SDS011;13143;50.924;5.320;2023-03-01T16:07:55;15.48;;;9.40;;
25191;SDS011;13143;50.924;5.320;2023-03-01T16:10:21;11.00;;;7.60;;
25191;SDS011;13143;50.924;5.320;2023-03-01T16:12:47;14.93;;;7.75;;
25191;SDS011;13143;50.924;5.320;2023-03-01T16:15:19;14.90;;;8.02;;
25191;SDS011;13143;50.924;5.320;2023-03-01T16:17:46;14.02;;;8.10;;
25191;SDS011;13143;50.924;5.320;2023-03-01T16:20:12;14.80;;;7.90;;
25191;SDS011;13143;50.924;5.320;2023-03-01T16:22:40;14.30;;;8.15;;
25191;SDS011;13143;50.924;5.320;2023-03-01T16:25:10;17.83;;;9.13;;
25191;SDS011;13143;50.924;5.320;2023-03-01T16:27:37;16.23;;;8.25;;
25191;SDS011;13143;50.924;5.320;2023-03-01T16:30:03;16.13;;;8.20;;
25191;SDS011;13143;50.924;5.320;2023-03-01T16:32:31;14.80;;;8.05;;
25191;SDS011;13143;50.924;5.320;2023-03-01T16:34:56;15.88;;;8.52;;
25191;SDS011;13143;50.924;5.320;2023-03-01T16:37:22;15.98;;;8.82;;
25191;SDS011;13143;50.924;5.320;2023-03-01T16:39:48;16.45;;;8.60;;